createdAt,value
2022-10-22T00:01:10.213Z,16.90
2022-10-22T00:03:57.786Z,16.30
2022-10-22T00:06:45.415Z,17.30
2022-10-22T00:09:32.916Z,16.33
2022-10-22T00:12:20.690Z,16.13
2022-10-22T00:15:08.122Z,16.35
2022-10-22T00:17:56.010Z,17.00
2022-10-22T00:20:43.621Z,15.98
2022-10-22T00:23:30.782Z,16.95
2022-10-22T00:26:18.298Z,16.25
2022-10-22T00:29:05.818Z,16.25
2022-10-22T00:31:52.906Z,15.80
2022-10-22T00:34:40.468Z,14.48
2022-10-22T00:37:27.991Z,15.30
2022-10-22T00:40:15.700Z,16.33
2022-10-22T00:43:03.194Z,15.32
2022-10-22T00:45:50.732Z,15.07
2022-10-22T00:48:38.212Z,15.70
2022-10-22T00:51:30.210Z,15.65
2022-10-22T00:54:17.742Z,15.98
2022-10-22T00:57:05.115Z,16.02
2022-10-22T00:59:52.668Z,15.68
2022-10-22T01:02:40.461Z,15.65
2022-10-22T01:05:36.886Z,14.23
2022-10-22T01:08:45.776Z,14.32
2022-10-22T01:12:02.766Z,14.32
2022-10-22T01:15:17.817Z,14.90
2022-10-22T01:18:18.407Z,15.82
2022-10-22T01:21:05.916Z,15.15
2022-10-22T01:24:17.233Z,21.02
2022-10-22T01:27:22.137Z,23.92
2022-10-22T01:30:12.430Z,30.73
2022-10-22T01:33:05.207Z,20.75
2022-10-22T01:35:53.238Z,18.10
2022-10-22T01:38:41.600Z,53.95
2022-10-22T01:41:29.618Z,33.67
2022-10-22T01:44:31.559Z,14.57
2022-10-22T01:47:48.310Z,23.45
2022-10-22T01:50:44.757Z,22.08
2022-10-22T01:53:32.281Z,15.10
2022-10-22T01:56:28.042Z,19.45
2022-10-22T01:59:30.179Z,29.50
2022-10-22T02:02:31.335Z,22.02
2022-10-22T02:05:18.782Z,51.13
2022-10-22T02:08:10.359Z,48.75
2022-10-22T02:10:59.426Z,23.58
2022-10-22T02:13:50.392Z,22.08
2022-10-22T02:16:42.593Z,14.90
2022-10-22T02:19:46.376Z,13.45
2022-10-22T02:22:34.311Z,13.70
2022-10-22T02:25:27.194Z,14.18
2022-10-22T02:28:26.610Z,13.80
2022-10-22T02:31:19.091Z,13.45
2022-10-22T02:34:11.080Z,14.35
2022-10-22T02:37:01.081Z,13.93
2022-10-22T02:39:48.911Z,13.80
2022-10-22T02:42:37.876Z,15.52
2022-10-22T02:45:25.784Z,14.82
2022-10-22T02:48:13.387Z,16.42
2022-10-22T02:51:00.915Z,16.90
2022-10-22T02:53:48.396Z,16.23
2022-10-22T02:56:35.929Z,17.02
2022-10-22T02:59:23.368Z,16.10
2022-10-22T03:02:13.646Z,16.63
2022-10-22T03:05:01.664Z,14.95
2022-10-22T03:07:48.729Z,14.57
2022-10-22T03:10:36.301Z,14.68
2022-10-22T03:13:23.834Z,14.07
2022-10-22T03:16:11.453Z,14.05
2022-10-22T03:18:59.041Z,13.95
2022-10-22T03:22:02.174Z,13.63
2022-10-22T03:24:52.437Z,13.73
2022-10-22T03:27:41.739Z,13.38
2022-10-22T03:30:29.661Z,14.48
2022-10-22T03:33:17.149Z,13.27
2022-10-22T03:36:04.982Z,13.77
2022-10-22T03:38:52.495Z,14.18
2022-10-22T03:41:40.165Z,13.38
2022-10-22T03:44:28.241Z,12.82
2022-10-22T03:47:15.770Z,13.20
2022-10-22T03:50:03.613Z,13.77
2022-10-22T03:52:51.183Z,14.48
2022-10-22T03:55:38.620Z,13.50
2022-10-22T03:58:26.134Z,13.25
2022-10-22T04:01:14.301Z,14.55
2022-10-22T04:04:01.847Z,15.02
2022-10-22T04:06:49.406Z,13.32
2022-10-22T04:09:37.087Z,14.65
2022-10-22T04:12:24.595Z,14.18
2022-10-22T04:15:12.055Z,13.93
2022-10-22T04:17:59.110Z,14.45
2022-10-22T04:20:46.629Z,14.15
2022-10-22T04:23:34.094Z,15.13
2022-10-22T04:26:21.744Z,14.30
2022-10-22T04:29:11.951Z,15.18
2022-10-22T04:32:02.732Z,15.30
2022-10-22T04:34:50.230Z,15.45
2022-10-22T04:37:38.851Z,16.00
2022-10-22T04:40:26.675Z,15.65
2022-10-22T04:43:14.232Z,16.30
2022-10-22T04:46:01.712Z,16.95
2022-10-22T04:48:49.456Z,17.02
2022-10-22T04:51:36.966Z,17.45
2022-10-22T04:54:26.624Z,16.02
2022-10-22T04:57:16.328Z,16.38
2022-10-22T05:00:05.556Z,17.15
2022-10-22T05:02:53.062Z,15.70
2022-10-22T05:05:40.509Z,15.43
2022-10-22T05:08:27.970Z,16.10
2022-10-22T05:11:17.687Z,16.20
2022-10-22T05:14:07.708Z,15.48
2022-10-22T05:16:54.928Z,15.88
2022-10-22T05:19:42.373Z,16.40
2022-10-22T05:22:29.916Z,15.52
2022-10-22T05:25:17.489Z,16.60
2022-10-22T05:28:05.017Z,16.73
2022-10-22T05:30:56.133Z,15.80
2022-10-22T05:33:43.969Z,16.83
2022-10-22T05:36:31.062Z,17.48
2022-10-22T05:39:18.536Z,16.65
2022-10-22T05:42:06.133Z,16.95
2022-10-22T05:44:53.674Z,15.98
2022-10-22T05:47:40.736Z,15.93
2022-10-22T05:50:28.277Z,14.93
2022-10-22T05:53:15.720Z,14.85
2022-10-22T05:56:05.112Z,14.93
2022-10-22T05:58:52.966Z,15.07
2022-10-22T06:01:40.727Z,16.10
2022-10-22T06:04:28.238Z,15.95
2022-10-22T06:07:16.307Z,16.25
2022-10-22T06:10:04.094Z,16.85
2022-10-22T06:12:51.168Z,16.25
2022-10-22T06:15:38.706Z,16.35
2022-10-22T06:18:26.245Z,15.65
2022-10-22T06:21:15.316Z,15.57
2022-10-22T06:24:02.883Z,16.17
2022-10-22T06:26:51.452Z,16.48
2022-10-22T06:29:38.947Z,16.92
2022-10-22T06:32:26.462Z,17.17
2022-10-22T06:35:13.953Z,16.77
2022-10-22T06:38:01.479Z,17.80
2022-10-22T06:40:48.952Z,17.98
2022-10-22T06:43:36.544Z,17.08
2022-10-22T06:46:24.944Z,19.40
2022-10-22T06:49:14.291Z,17.50
2022-10-22T06:52:01.811Z,16.20
2022-10-22T06:54:49.281Z,17.13
2022-10-22T06:57:36.830Z,18.95
2022-10-22T07:00:24.674Z,18.10
2022-10-22T07:03:15.311Z,16.52
2022-10-22T07:06:04.215Z,16.77
2022-10-22T07:08:51.846Z,16.70
2022-10-22T07:11:42.927Z,18.13
2022-10-22T07:14:30.383Z,16.48
2022-10-22T07:17:17.939Z,16.63
2022-10-22T07:20:05.842Z,15.25
2022-10-22T07:22:53.292Z,15.35
2022-10-22T07:25:41.583Z,16.70
2022-10-22T07:28:29.366Z,14.77
2022-10-22T07:31:17.541Z,15.32
2022-10-22T07:34:05.108Z,15.80
2022-10-22T07:36:52.562Z,15.18
2022-10-22T07:39:40.104Z,14.43
2022-10-22T07:42:27.153Z,15.27
2022-10-22T07:45:14.636Z,16.15
2022-10-22T07:48:02.270Z,16.15
2022-10-22T07:50:50.990Z,16.40
2022-10-22T07:53:38.537Z,15.98
2022-10-22T07:56:26.016Z,16.13
2022-10-22T07:59:13.454Z,15.00
2022-10-22T08:02:00.901Z,16.05
2022-10-22T08:04:48.425Z,15.35
2022-10-22T08:07:35.893Z,15.25
2022-10-22T08:10:23.434Z,16.02
2022-10-22T08:13:11.272Z,14.55
2022-10-22T08:16:01.904Z,16.35
2022-10-22T08:18:49.336Z,14.68
2022-10-22T08:21:36.793Z,16.17
2022-10-22T08:24:24.361Z,15.25
2022-10-22T08:27:11.902Z,14.40
2022-10-22T08:29:59.391Z,15.55
2022-10-22T08:32:49.312Z,14.45
2022-10-22T08:35:39.297Z,15.98
2022-10-22T08:38:26.889Z,13.98
2022-10-22T08:41:19.741Z,14.75
2022-10-22T08:44:37.859Z,14.50
2022-10-22T08:47:52.903Z,14.80
2022-10-22T08:50:49.161Z,14.93
2022-10-22T08:53:49.894Z,14.98
2022-10-22T08:56:37.850Z,14.75
2022-10-22T08:59:33.533Z,14.65
2022-10-22T09:02:33.711Z,14.23
2022-10-22T09:05:42.767Z,13.30
2022-10-22T09:08:30.060Z,12.95
2022-10-22T09:11:23.779Z,13.93
2022-10-22T09:14:17.721Z,12.32
2022-10-22T09:17:33.847Z,11.90
2022-10-22T09:20:32.741Z,11.43
2022-10-22T09:23:48.003Z,27.60
2022-10-22T09:26:39.340Z,15.25
2022-10-22T09:29:33.149Z,30.90
2022-10-22T09:32:20.951Z,19.63
2022-10-22T09:35:12.278Z,13.82
2022-10-22T09:38:07.739Z,12.18
2022-10-22T09:40:56.733Z,9.63
2022-10-22T09:43:47.722Z,19.25
2022-10-22T09:46:43.837Z,8.10
2022-10-22T09:49:34.939Z,15.13
2022-10-22T09:52:28.572Z,7.97
2022-10-22T09:55:19.266Z,16.00
2022-10-22T09:58:12.017Z,8.57
2022-10-22T10:01:00.984Z,19.77
2022-10-22T10:03:49.755Z,5.78
2022-10-22T10:06:41.697Z,5.30
2022-10-22T10:09:34.794Z,9.55
2022-10-22T10:12:54.209Z,14.73
2022-10-22T10:15:55.601Z,6.68
2022-10-22T10:19:08.847Z,4.00
2022-10-22T10:21:57.133Z,3.67
2022-10-22T10:25:08.757Z,15.95
2022-10-22T10:28:26.541Z,4.53
2022-10-22T10:31:58.085Z,4.15
2022-10-22T10:35:07.082Z,3.20
2022-10-22T10:38:02.772Z,3.33
2022-10-22T10:40:50.194Z,3.13
2022-10-22T10:44:11.368Z,3.00
2022-10-22T10:47:15.737Z,3.08
2022-10-22T10:50:23.878Z,3.40
2022-10-22T10:53:24.928Z,3.80
2022-10-22T10:56:26.785Z,3.20
2022-10-22T10:59:19.223Z,2.95
2022-10-22T11:02:50.974Z,2.90
2022-10-22T11:06:00.093Z,3.13
2022-10-22T11:09:08.414Z,2.78
2022-10-22T11:11:59.463Z,2.88
2022-10-22T11:14:46.929Z,2.67
2022-10-22T11:17:42.554Z,2.83
2022-10-22T11:21:02.039Z,2.50
2022-10-22T11:23:55.795Z,3.22
2022-10-22T11:27:05.768Z,3.25
2022-10-22T11:29:59.809Z,4.15
2022-10-22T11:32:54.363Z,2.58
2022-10-22T11:35:44.992Z,2.80
2022-10-22T11:38:35.125Z,2.80
2022-10-22T11:41:27.347Z,3.47
2022-10-22T11:44:25.874Z,2.80
2022-10-22T11:47:20.030Z,2.17
2022-10-22T11:50:25.440Z,2.92
2022-10-22T11:53:13.021Z,2.78
2022-10-22T11:56:12.938Z,2.30
2022-10-22T11:59:00.489Z,2.63
2022-10-22T12:01:48.425Z,2.08
2022-10-22T12:04:43.067Z,1.85
2022-10-22T12:07:48.558Z,2.22
2022-10-22T12:10:54.256Z,2.33
2022-10-22T12:14:03.324Z,2.45
2022-10-22T12:16:57.601Z,1.85
2022-10-22T12:19:49.390Z,1.92
2022-10-22T12:22:37.666Z,2.00
2022-10-22T12:25:34.767Z,2.03
2022-10-22T12:28:23.520Z,2.03
2022-10-22T12:31:16.799Z,2.20
2022-10-22T12:34:04.583Z,2.00
2022-10-22T12:36:53.558Z,1.60
2022-10-22T12:39:41.025Z,2.38
2022-10-22T12:42:28.230Z,2.22
2022-10-22T12:45:15.695Z,1.50
2022-10-22T12:48:06.337Z,1.77
2022-10-22T12:50:56.302Z,2.30
2022-10-22T12:53:47.174Z,2.13
2022-10-22T12:56:35.716Z,2.30
2022-10-22T12:59:29.540Z,1.92
2022-10-22T13:02:24.373Z,2.58
2022-10-22T13:05:11.958Z,2.45
2022-10-22T13:08:20.727Z,2.20
2022-10-22T13:11:10.683Z,2.28
2022-10-22T13:14:06.350Z,2.60
2022-10-22T13:17:19.948Z,2.10
2022-10-22T13:20:23.847Z,2.05
2022-10-22T13:23:20.124Z,1.80
2022-10-22T13:26:10.410Z,2.65
2022-10-22T13:28:58.690Z,2.22
2022-10-22T13:31:48.056Z,2.83
2022-10-22T13:34:36.344Z,2.30
2022-10-22T13:37:24.149Z,2.13
2022-10-22T13:40:14.613Z,2.63
2022-10-22T13:43:02.242Z,2.40
2022-10-22T13:45:53.276Z,2.15
2022-10-22T13:48:41.014Z,2.08
2022-10-22T13:51:33.324Z,2.45
2022-10-22T13:54:23.358Z,2.17
2022-10-22T13:57:10.715Z,1.95
2022-10-22T13:59:58.158Z,2.00
2022-10-22T14:02:47.890Z,2.15
2022-10-22T14:05:35.508Z,2.10
2022-10-22T14:08:25.664Z,2.20
2022-10-22T14:11:13.361Z,2.47
2022-10-22T14:14:00.836Z,1.80
2022-10-22T14:16:48.360Z,2.47
2022-10-22T14:19:35.821Z,1.95
2022-10-22T14:22:27.035Z,2.08
2022-10-22T14:25:16.398Z,2.42
2022-10-22T14:28:03.934Z,1.98
2022-10-22T14:30:52.090Z,2.17
2022-10-22T14:33:40.257Z,2.20
2022-10-22T14:36:28.062Z,2.80
2022-10-22T14:39:15.169Z,2.45
2022-10-22T14:42:02.764Z,2.33
2022-10-22T14:44:50.383Z,2.67
2022-10-22T14:47:37.853Z,2.90
2022-10-22T14:50:25.564Z,2.40
2022-10-22T14:53:13.718Z,2.30
2022-10-22T14:56:01.941Z,2.60
2022-10-22T14:58:49.382Z,2.58
2022-10-22T15:01:36.883Z,3.30
2022-10-22T15:04:26.924Z,4.85
2022-10-22T15:07:18.236Z,4.47
2022-10-22T15:10:07.024Z,7.47
2022-10-22T15:12:54.597Z,1.92
2022-10-22T15:15:42.343Z,2.13
2022-10-22T15:18:29.837Z,3.30
2022-10-22T15:21:21.428Z,13.35
2022-10-22T15:24:08.960Z,2.50
2022-10-22T15:26:56.454Z,3.67
2022-10-22T15:29:43.971Z,2.47
2022-10-22T15:32:33.506Z,9.63
2022-10-22T15:35:21.001Z,2.42
2022-10-22T15:38:09.298Z,3.92
2022-10-22T15:41:05.800Z,2.22
2022-10-22T15:43:53.513Z,2.00
2022-10-22T15:46:41.242Z,2.50
2022-10-22T15:49:28.793Z,1.98
2022-10-22T15:52:16.344Z,2.38
2022-10-22T15:55:06.826Z,2.53
2022-10-22T15:57:57.124Z,1.90
2022-10-22T16:00:46.957Z,1.95
2022-10-22T16:03:34.683Z,2.40
2022-10-22T16:06:22.234Z,1.90
2022-10-22T16:09:16.236Z,1.73
2022-10-22T16:12:03.913Z,2.08
2022-10-22T16:14:51.519Z,1.83
2022-10-22T16:17:39.109Z,2.50
2022-10-22T16:20:26.584Z,2.38
2022-10-22T16:23:18.450Z,2.33
2022-10-22T16:26:06.034Z,2.90
2022-10-22T16:28:53.548Z,2.33
2022-10-22T16:31:43.460Z,1.90
2022-10-22T16:34:30.981Z,2.30
2022-10-22T16:37:18.456Z,1.92
2022-10-22T16:40:08.237Z,1.58
2022-10-22T16:42:55.930Z,1.60
2022-10-22T16:45:52.415Z,1.70
2022-10-22T16:48:42.031Z,2.00
2022-10-22T16:51:29.453Z,1.92
2022-10-22T16:54:16.924Z,1.80
2022-10-22T16:57:04.450Z,1.92
2022-10-22T16:59:51.928Z,2.10
2022-10-22T17:02:39.630Z,2.28
2022-10-22T17:05:27.310Z,2.20
2022-10-22T17:08:14.754Z,2.00
2022-10-22T17:11:16.920Z,2.10
2022-10-22T17:14:04.425Z,1.95
2022-10-22T17:16:53.745Z,2.20
2022-10-22T17:19:41.271Z,1.48
2022-10-22T17:22:28.829Z,1.63
2022-10-22T17:25:36.398Z,1.90
2022-10-22T17:28:23.889Z,1.70
2022-10-22T17:31:11.378Z,2.20
2022-10-22T17:33:59.966Z,1.90
2022-10-22T17:36:47.534Z,2.17
2022-10-22T17:39:35.024Z,2.03
2022-10-22T17:42:22.492Z,1.98
2022-10-22T17:45:10.064Z,1.65
2022-10-22T17:47:57.532Z,1.50
2022-10-22T17:50:48.241Z,2.15
2022-10-22T17:53:42.811Z,1.52
2022-10-22T17:56:30.729Z,1.77
2022-10-22T17:59:19.009Z,5.95
2022-10-22T18:02:06.521Z,17.75
2022-10-22T18:04:53.975Z,21.55
2022-10-22T18:07:41.454Z,2.35
2022-10-22T18:10:29.765Z,2.50
2022-10-22T18:13:17.277Z,2.13
2022-10-22T18:16:04.833Z,19.17
2022-10-22T18:18:55.368Z,10.75
2022-10-22T18:21:42.449Z,13.50
2022-10-22T18:24:29.954Z,3.53
2022-10-22T18:27:17.419Z,2.70
2022-10-22T18:30:05.284Z,2.38
2022-10-22T18:32:52.330Z,3.08
2022-10-22T18:35:41.281Z,5.95
2022-10-22T18:38:28.776Z,11.13
2022-10-22T18:41:16.267Z,6.95
2022-10-22T18:44:05.200Z,4.20
2022-10-22T18:46:52.735Z,2.63
2022-10-22T18:49:40.519Z,2.30
2022-10-22T18:52:27.607Z,2.58
2022-10-22T18:55:15.182Z,3.28
2022-10-22T18:58:02.649Z,5.68
2022-10-22T19:00:50.310Z,6.85
2022-10-22T19:03:37.844Z,6.35
2022-10-22T19:06:33.307Z,4.25
2022-10-22T19:09:25.350Z,5.88
2022-10-22T19:12:14.998Z,4.90
2022-10-22T19:15:02.463Z,4.85
2022-10-22T19:17:49.959Z,4.50
2022-10-22T19:20:37.863Z,5.32
2022-10-22T19:23:25.418Z,5.07
2022-10-22T19:26:17.857Z,7.22
2022-10-22T19:29:05.392Z,5.22
2022-10-22T19:31:52.893Z,5.65
2022-10-22T19:34:41.078Z,5.28
2022-10-22T19:37:28.587Z,5.32
2022-10-22T19:40:16.091Z,5.22
2022-10-22T19:43:03.594Z,5.68
2022-10-22T19:45:50.697Z,6.40
2022-10-22T19:48:38.396Z,6.07
2022-10-22T19:51:29.703Z,5.65
2022-10-22T19:54:19.514Z,5.72
2022-10-22T19:57:07.561Z,5.80
2022-10-22T19:59:54.591Z,5.82
2022-10-22T20:02:42.058Z,7.20
2022-10-22T20:05:29.565Z,7.55
2022-10-22T20:08:17.360Z,6.60
2022-10-22T20:11:10.803Z,6.97
2022-10-22T20:13:58.643Z,7.13
2022-10-22T20:16:46.346Z,6.93
2022-10-22T20:19:33.798Z,6.57
2022-10-22T20:22:21.405Z,5.85
2022-10-22T20:25:12.054Z,5.03
2022-10-22T20:27:59.539Z,5.28
2022-10-22T20:30:46.892Z,4.90
2022-10-22T20:33:35.275Z,5.10
2022-10-22T20:36:24.046Z,5.43
2022-10-22T20:39:14.551Z,5.07
2022-10-22T20:42:02.046Z,5.47
2022-10-22T20:44:49.555Z,5.30
2022-10-22T20:47:50.940Z,5.45
2022-10-22T20:50:45.045Z,4.90
2022-10-22T20:53:32.490Z,5.93
2022-10-22T20:56:19.984Z,5.80
2022-10-22T20:59:08.491Z,5.90
2022-10-22T21:01:55.555Z,4.78
2022-10-22T21:04:45.594Z,5.57
2022-10-22T21:07:33.921Z,7.05
2022-10-22T21:10:21.382Z,14.23
2022-10-22T21:13:08.842Z,35.78
2022-10-22T21:15:56.390Z,24.73
2022-10-22T21:18:43.887Z,17.98
2022-10-22T21:21:31.377Z,13.23
2022-10-22T21:24:18.918Z,13.00
2022-10-22T21:27:07.394Z,12.45
2022-10-22T21:29:54.855Z,9.65
2022-10-22T21:32:42.681Z,7.60
2022-10-22T21:35:32.303Z,6.97
2022-10-22T21:38:19.853Z,6.97
2022-10-22T21:41:10.015Z,6.40
2022-10-22T21:43:57.608Z,6.60
2022-10-22T21:46:45.202Z,6.55
2022-10-22T21:49:32.848Z,6.32
2022-10-22T21:52:20.482Z,6.72
2022-10-22T21:55:08.071Z,7.15
2022-10-22T21:57:55.590Z,7.07
2022-10-22T22:00:42.738Z,6.35
2022-10-22T22:03:30.421Z,7.10
2022-10-22T22:06:21.370Z,5.45
2022-10-22T22:09:09.650Z,5.82
2022-10-22T22:11:56.963Z,15.18
2022-10-22T22:14:44.710Z,11.68
2022-10-22T22:17:32.430Z,13.38
2022-10-22T22:20:19.680Z,7.07
2022-10-22T22:23:07.134Z,7.03
2022-10-22T22:25:58.996Z,13.85
2022-10-22T22:28:46.527Z,14.18
2022-10-22T22:31:34.917Z,38.97
2022-10-22T22:34:22.466Z,13.88
2022-10-22T22:37:09.969Z,46.78
2022-10-22T22:39:57.523Z,6.93
2022-10-22T22:42:45.000Z,6.40
2022-10-22T22:45:32.543Z,21.10
2022-10-22T22:48:20.016Z,9.40
2022-10-22T22:51:08.151Z,20.77
2022-10-22T22:53:57.842Z,16.35
2022-10-22T22:56:45.397Z,16.95
2022-10-22T22:59:32.886Z,11.13
2022-10-22T23:02:20.405Z,8.88
2022-10-22T23:05:08.146Z,9.32
2022-10-22T23:07:55.694Z,5.90
2022-10-22T23:10:43.183Z,6.07
2022-10-22T23:13:31.006Z,6.03
2022-10-22T23:16:20.599Z,5.80
2022-10-22T23:19:08.220Z,6.05
2022-10-22T23:21:57.506Z,5.70
2022-10-22T23:24:45.142Z,5.47
2022-10-22T23:27:32.815Z,5.82
2022-10-22T23:30:20.344Z,5.97
2022-10-22T23:33:08.589Z,5.25
2022-10-22T23:35:56.203Z,5.68
2022-10-22T23:38:43.803Z,5.60
2022-10-22T23:41:31.392Z,5.28
2022-10-22T23:44:19.077Z,5.25
2022-10-22T23:47:06.575Z,4.85
2022-10-22T23:49:54.061Z,5.13
2022-10-22T23:52:41.842Z,5.57
2022-10-22T23:55:29.598Z,5.45
2022-10-22T23:58:17.373Z,5.22
